Time;durP1;ratioP1;P1;durP2;ratioP2;P2;SDS_P1;SDS_P2;PMS_P1;PMS_P2;Temp;Humidity;BMP_temperature;BMP_pressure;BME280_temperature;BME280_humidity;BME280_pressure;Samples;Min_cycle;Max_cycle;Signal;HPM_P1;HPM_P2
2023/09/07 00:00:31;;;;;;;0.00;0.00;;;;;;;;;;5103923;28;20035;-83
2023/09/07 00:02:57;;;;;;;0.00;0.00;;;;;;;;;;5121776;28;20028;-84
2023/09/07 00:05:22;;;;;;;0.00;0.00;;;;;;;;;;5107776;28;20023;-83
2023/09/07 00:07:49;;;;;;;0.00;0.00;;;;;;;;;;5114048;28;20052;-82
2023/09/07 00:10:15;;;;;;;0.00;0.00;;;;;;;;;;5099519;28;20020;-82
2023/09/07 00:12:40;;;;;;;0.00;0.00;;;;;;;;;;5113723;28;20069;-82
2023/09/07 00:15:06;;;;;;;0.00;0.00;;;;;;;;;;5112868;28;20381;-82
2023/09/07 00:17:32;;;;;;;0.00;0.00;;;;;;;;;;5095783;28;20032;-83
2023/09/07 00:19:58;;;;;;;0.00;0.00;;;;;;;;;;5095617;28;20480;-83
2023/09/07 00:22:25;;;;;;;0.00;0.00;;;;;;;;;;5096119;28;20027;-82
2023/09/07 00:24:51;;;;;;;0.00;0.00;;;;;;;;;;5095701;28;20083;-83
2023/09/07 00:27:16;;;;;;;0.00;0.00;;;;;;;;;;5095663;28;20062;-83
2023/09/07 00:29:42;;;;;;;0.00;0.00;;;;;;;;;;5095213;28;20036;-83
2023/09/07 00:32:07;;;;;;;0.00;0.00;;;;;;;;;;5112883;28;20501;-84
2023/09/07 00:34:33;;;;;;;0.00;0.00;;;;;;;;;;5095789;28;20092;-84
2023/09/07 00:36:59;;;;;;;0.00;0.00;;;;;;;;;;5114575;28;20036;-83
2023/09/07 00:39:25;;;;;;;0.00;0.00;;;;;;;;;;5082633;28;20093;-84
2023/09/07 00:41:50;;;;;;;0.00;0.00;;;;;;;;;;5082324;28;20031;-84
2023/09/07 00:44:16;;;;;;;0.00;0.00;;;;;;;;;;5150269;27;20155;-84
2023/09/07 00:46:42;;;;;;;0.00;0.00;;;;;;;;;;5116302;28;20035;-84
2023/09/07 00:49:07;;;;;;;0.00;0.00;;;;;;;;;;5082140;28;20115;-84
2023/09/07 00:51:33;;;;;;;0.00;0.00;;;;;;;;;;5098970;28;20114;-83
2023/09/07 00:53:58;;;;;;;0.00;0.00;;;;;;;;;;5098938;28;20046;-83
2023/09/07 00:56:25;;;;;;;0.00;0.00;;;;;;;;;;5117559;27;20102;-84
2023/09/07 00:58:52;;;;;;;0.00;0.00;;;;;;;;;;5098792;28;20129;-84
2023/09/07 01:01:17;;;;;;;0.00;0.00;;;;;;;;;;5081876;28;20123;-83
2023/09/07 01:03:43;;;;;;;0.00;0.00;;;;;;;;;;5082090;28;20126;-83
2023/09/07 01:06:13;;;;;;;0.00;0.00;;;;;;;;;;5098969;28;20031;-84
2023/09/07 01:08:46;;;;;;;0.00;0.00;;;;;;;;;;5115892;28;20459;-84
2023/09/07 01:11:15;;;;;;;0.00;0.00;;;;;;;;;;5098990;28;20425;-83
2023/09/07 01:13:42;;;;;;;0.00;0.00;;;;;;;;;;5081678;28;20027;-83
2023/09/07 01:16:07;;;;;;;0.00;0.00;;;;;;;;;;5115659;28;20269;-84
2023/09/07 01:18:33;;;;;;;0.00;0.00;;;;;;;;;;5098655;28;20096;-84
2023/09/07 01:20:58;;;;;;;0.00;0.00;;;;;;;;;;5081852;28;20031;-84
2023/09/07 01:23:24;;;;;;;0.00;0.00;;;;;;;;;;5098454;28;20421;-85
2023/09/07 01:25:49;;;;;;;0.00;0.00;;;;;;;;;;5098424;28;20364;-84
2023/09/07 01:28:15;;;;;;;0.00;0.00;;;;;;;;;;5097980;28;20027;-84
2023/09/07 01:30:41;;;;;;;0.00;0.00;;;;;;;;;;5115225;28;20035;-85
2023/09/07 01:33:08;;;;;;;0.00;0.00;;;;;;;;;;5081649;28;20441;-84
2023/09/07 01:35:34;;;;;;;0.10;0.00;;;;;;;;;;5115241;28;20502;-84
2023/09/07 01:37:59;;;;;;;0.00;0.00;;;;;;;;;;5098132;28;20028;-82
2023/09/07 01:40:25;;;;;;;0.00;0.00;;;;;;;;;;5115281;28;20413;-84
2023/09/07 01:42:51;;;;;;;0.00;0.00;;;;;;;;;;5116123;28;20032;-84
2023/09/07 01:45:16;;;;;;;0.00;0.00;;;;;;;;;;5114928;28;20361;-84
2023/09/07 01:47:45;;;;;;;0.00;0.00;;;;;;;;;;5114815;28;20027;-84
2023/09/07 01:50:10;;;;;;;0.00;0.00;;;;;;;;;;5114863;28;20036;-84
2023/09/07 01:52:36;;;;;;;0.10;0.00;;;;;;;;;;5114980;28;20456;-81
2023/09/07 01:55:01;;;;;;;0.00;0.00;;;;;;;;;;5115932;28;20046;-83
2023/09/07 01:57:27;;;;;;;0.00;0.00;;;;;;;;;;5097963;28;20039;-83
2023/09/07 01:59:53;;;;;;;0.00;0.00;;;;;;;;;;5116229;28;20032;-83
2023/09/07 02:02:18;;;;;;;0.00;0.00;;;;;;;;;;5114529;28;20370;-83
2023/09/07 02:04:45;;;;;;;0.00;0.00;;;;;;;;;;5114424;28;20031;-83
2023/09/07 02:07:11;;;;;;;0.00;0.00;;;;;;;;;;5114415;28;20123;-83
2023/09/07 02:09:37;;;;;;;0.00;0.00;;;;;;;;;;5097303;28;20069;-83
2023/09/07 02:12:05;;;;;;;0.00;0.00;;;;;;;;;;5114282;28;20380;-84
2023/09/07 02:14:31;;;;;;;0.00;0.00;;;;;;;;;;5114122;28;20453;-83
2023/09/07 02:16:56;;;;;;;0.00;0.00;;;;;;;;;;5097590;28;20070;-83
2023/09/07 02:19:23;;;;;;;0.00;0.00;;;;;;;;;;5114140;28;20061;-83
2023/09/07 02:21:49;;;;;;;0.00;0.00;;;;;;;;;;5114238;28;20024;-84
2023/09/07 02:24:14;;;;;;;0.00;0.00;;;;;;;;;;5114090;28;20016;-83
2023/09/07 02:26:44;;;;;;;0.00;0.00;;;;;;;;;;5080227;28;20062;-83
2023/09/07 02:29:11;;;;;;;0.00;0.00;;;;;;;;;;5114320;28;20380;-83
2023/09/07 02:31:36;;;;;;;0.00;0.00;;;;;;;;;;5097181;28;20356;-83
2023/09/07 02:34:03;;;;;;;0.00;0.00;;;;;;;;;;5079845;28;20138;-84
2023/09/07 02:36:29;;;;;;;0.00;0.00;;;;;;;;;;5114556;28;20089;-83
2023/09/07 02:38:54;;;;;;;0.00;0.00;;;;;;;;;;5097256;28;20486;-83
2023/09/07 02:41:19;;;;;;;0.00;0.00;;;;;;;;;;5113573;28;20046;-84
2023/09/07 02:43:45;;;;;;;0.00;0.00;;;;;;;;;;5113782;28;20092;-84
2023/09/07 02:46:10;;;;;;;0.00;0.00;;;;;;;;;;5114999;28;20031;-83
2023/09/07 02:48:36;;;;;;;0.00;0.00;;;;;;;;;;5114818;27;20028;-83
2023/09/07 02:51:01;;;;;;;0.00;0.00;;;;;;;;;;5115077;28;20027;-83
2023/09/07 02:53:27;;;;;;;0.00;0.00;;;;;;;;;;5079522;28;20035;-83
2023/09/07 02:55:52;;;;;;;0.00;0.00;;;;;;;;;;5096608;28;20472;-82
2023/09/07 02:58:18;;;;;;;0.00;0.00;;;;;;;;;;5096628;28;20027;-83
2023/09/07 03:00:44;;;;;;;0.00;0.00;;;;;;;;;;5113832;28;20046;-84
2023/09/07 03:03:11;;;;;;;0.00;0.00;;;;;;;;;;5113402;28;20036;-82
2023/09/07 03:05:41;;;;;;;0.00;0.00;;;;;;;;;;5113670;28;20151;-82
2023/09/07 03:08:07;;;;;;;0.00;0.00;;;;;;;;;;5113365;28;20027;-82
2023/09/07 03:10:32;;;;;;;0.00;0.00;;;;;;;;;;5114231;28;20080;-82
2023/09/07 03:12:58;;;;;;;0.00;0.00;;;;;;;;;;5114440;28;20023;-83
2023/09/07 03:15:23;;;;;;;0.00;0.00;;;;;;;;;;5114450;28;20027;-83
2023/09/07 03:17:49;;;;;;;0.00;0.00;;;;;;;;;;5113681;28;20152;-82
2023/09/07 03:20:14;;;;;;;0.00;0.00;;;;;;;;;;5115138;28;20030;-83
2023/09/07 03:22:41;;;;;;;0.00;0.00;;;;;;;;;;5114642;28;20031;-83
2023/09/07 03:25:08;;;;;;;0.00;0.00;;;;;;;;;;5114660;28;20027;-83
2023/09/07 03:27:33;;;;;;;0.00;0.00;;;;;;;;;;5113178;28;20345;-82
2023/09/07 03:29:59;;;;;;;0.00;0.00;;;;;;;;;;5114402;28;20047;-82
2023/09/07 03:32:26;;;;;;;0.00;0.00;;;;;;;;;;5113147;28;20035;-83
2023/09/07 03:34:52;;;;;;;0.00;0.00;;;;;;;;;;5112949;28;20368;-83
2023/09/07 03:37:17;;;;;;;0.00;0.00;;;;;;;;;;5114490;28;20020;-82
2023/09/07 03:39:43;;;;;;;0.00;0.00;;;;;;;;;;5114477;28;20028;-83
2023/09/07 03:42:08;;;;;;;0.00;0.00;;;;;;;;;;5114209;28;20027;-83
2023/09/07 03:44:33;;;;;;;0.00;0.00;;;;;;;;;;5113117;28;20124;-83
2023/09/07 03:47:00;;;;;;;0.00;0.00;;;;;;;;;;5079453;28;20026;-84
2023/09/07 03:49:25;;;;;;;0.00;0.00;;;;;;;;;;5130495;28;20031;-82
2023/09/07 03:51:51;;;;;;;0.00;0.00;;;;;;;;;;5112785;28;20031;-83
2023/09/07 03:54:16;;;;;;;0.20;0.00;;;;;;;;;;5114030;28;20350;-83
2023/09/07 03:56:42;;;;;;;0.00;0.00;;;;;;;;;;5113280;28;20028;-83
2023/09/07 03:59:07;;;;;;;0.00;0.00;;;;;;;;;;5113493;28;20024;-83
2023/09/07 04:01:33;;;;;;;0.00;0.00;;;;;;;;;;5095859;28;20445;-83
2023/09/07 04:03:58;;;;;;;0.00;0.00;;;;;;;;;;5112765;28;20480;-82
2023/09/07 04:06:24;;;;;;;0.00;0.00;;;;;;;;;;5112557;28;20370;-83
2023/09/07 04:08:49;;;;;;;0.00;0.00;;;;;;;;;;5114060;28;20032;-84
2023/09/07 04:11:14;;;;;;;0.00;0.00;;;;;;;;;;5080434;28;20321;-84
2023/09/07 04:13:40;;;;;;;0.00;0.00;;;;;;;;;;5082982;28;20070;-84
2023/09/07 04:16:05;;;;;;;0.10;0.00;;;;;;;;;;5116886;28;20350;-84
2023/09/07 04:18:31;;;;;;;0.00;0.00;;;;;;;;;;5116783;28;20049;-84
2023/09/07 04:21:06;;;;;;;0.00;0.00;;;;;;;;;;5099581;28;20027;-84
2023/09/07 04:23:32;;;;;;;0.00;0.00;;;;;;;;;;5099791;28;20457;-84
2023/09/07 04:26:09;;;;;;;0.00;0.00;;;;;;;;;;5117699;28;20076;-83
2023/09/07 04:28:34;;;;;;;0.00;0.00;;;;;;;;;;5082992;28;20038;-84
2023/09/07 04:31:00;;;;;;;0.00;0.00;;;;;;;;;;5099339;28;20019;-84
2023/09/07 04:33:26;;;;;;;0.00;0.00;;;;;;;;;;5099682;28;20032;-84
2023/09/07 04:35:54;;;;;;;0.00;0.00;;;;;;;;;;5117390;28;20035;-84
2023/09/07 04:38:20;;;;;;;0.00;0.00;;;;;;;;;;5116467;28;20028;-84
2023/09/07 04:40:47;;;;;;;0.00;0.00;;;;;;;;;;5118022;28;20085;-84
2023/09/07 04:43:12;;;;;;;0.00;0.00;;;;;;;;;;5099715;28;20130;-84
2023/09/07 04:45:46;;;;;;;0.00;0.00;;;;;;;;;;5116608;28;20058;-84
2023/09/07 04:48:11;;;;;;;0.00;0.00;;;;;;;;;;5116178;28;20106;-84
2023/09/07 04:50:37;;;;;;;0.00;0.00;;;;;;;;;;5098821;28;20421;-84
2023/09/07 04:53:02;;;;;;;0.00;0.00;;;;;;;;;;5116021;28;20483;-84
2023/09/07 04:56:04;;;;;;;0.00;0.00;;;;;;;;;;5116327;28;20036;-84
2023/09/07 04:58:29;;;;;;;0.00;0.00;;;;;;;;;;5103735;28;20468;-84
2023/09/07 05:01:00;;;;;;;0.00;0.00;;;;;;;;;;5117736;28;20027;-84
2023/09/07 05:03:26;;;;;;;0.00;0.00;;;;;;;;;;5116081;28;20039;-84
2023/09/07 05:05:53;;;;;;;0.00;0.00;;;;;;;;;;5115779;28;20460;-84
2023/09/07 05:08:18;;;;;;;0.00;0.00;;;;;;;;;;5098708;28;20139;-84
2023/09/07 05:10:44;;;;;;;0.00;0.00;;;;;;;;;;5115669;28;20551;-84
2023/09/07 05:13:09;;;;;;;0.00;0.00;;;;;;;;;;5115860;28;20104;-84
2023/09/07 05:15:35;;;;;;;0.00;0.00;;;;;;;;;;5116767;27;20118;-84
2023/09/07 05:18:00;;;;;;;0.05;0.03;;;;;;;;;;5117102;28;20024;-84
2023/09/07 05:20:26;;;;;;;0.00;0.00;;;;;;;;;;5115692;28;20037;-84
2023/09/07 05:23:15;;;;;;;0.00;0.00;;;;;;;;;;5116421;28;20404;-84
2023/09/07 05:25:50;;;;;;;0.00;0.00;;;;;;;;;;5115616;28;20031;-84
2023/09/07 05:28:15;;;;;;;0.00;0.00;;;;;;;;;;5098594;28;20027;-84
2023/09/07 05:30:42;;;;;;;0.00;0.00;;;;;;;;;;5115064;28;20053;-84
2023/09/07 05:33:09;;;;;;;0.00;0.00;;;;;;;;;;5098236;28;20118;-84
2023/09/07 05:35:34;;;;;;;0.00;0.00;;;;;;;;;;5098305;28;20027;-85
2023/09/07 05:38:00;;;;;;;0.00;0.00;;;;;;;;;;5086406;28;20036;-85
2023/09/07 05:40:25;;;;;;;0.00;0.00;;;;;;;;;;5105906;28;20031;-84
2023/09/07 05:42:51;;;;;;;0.00;0.00;;;;;;;;;;5123374;28;20031;-84
2023/09/07 05:45:17;;;;;;;0.00;0.00;;;;;;;;;;5107504;28;20436;-84
2023/09/07 05:47:42;;;;;;;0.00;0.00;;;;;;;;;;5105889;28;20030;-84
2023/09/07 05:50:09;;;;;;;0.00;0.00;;;;;;;;;;5123945;28;20035;-85
2023/09/07 05:52:36;;;;;;;0.00;0.00;;;;;;;;;;5124662;28;20031;-85
2023/09/07 05:55:01;;;;;;;0.00;0.00;;;;;;;;;;5123139;28;20031;-84
2023/09/07 05:57:26;;;;;;;0.05;0.00;;;;;;;;;;5122845;28;20084;-84
2023/09/07 05:59:52;;;;;;;0.20;0.00;;;;;;;;;;5124017;28;20030;-85
2023/09/07 06:02:17;;;;;;;0.00;0.00;;;;;;;;;;5091748;28;20028;-85
2023/09/07 06:04:43;;;;;;;0.28;0.00;;;;;;;;;;5103456;28;20134;-89
2023/09/07 06:07:08;;;;;;;0.00;0.00;;;;;;;;;;5102765;28;20087;-90
2023/09/07 06:09:35;;;;;;;0.00;0.00;;;;;;;;;;5102431;28;20114;-87
2023/09/07 06:12:02;;;;;;;0.00;0.00;;;;;;;;;;5103491;28;20056;-89
2023/09/07 06:14:28;;;;;;;0.00;0.00;;;;;;;;;;5120729;28;20037;-90
2023/09/07 06:16:53;;;;;;;0.00;0.00;;;;;;;;;;5120948;28;20067;-88
2023/09/07 06:19:19;;;;;;;0.00;0.00;;;;;;;;;;5121423;28;20026;-90
2023/09/07 06:21:45;;;;;;;0.00;0.00;;;;;;;;;;5105105;28;20053;-88
2023/09/07 06:24:10;;;;;;;0.00;0.00;;;;;;;;;;5120634;28;20031;-87
2023/09/07 06:26:36;;;;;;;0.20;0.00;;;;;;;;;;5154488;27;20438;-87
2023/09/07 06:29:01;;;;;;;0.00;0.00;;;;;;;;;;5100759;28;20131;-87
2023/09/07 06:31:27;;;;;;;0.00;0.00;;;;;;;;;;5119122;28;20032;-88
2023/09/07 06:33:52;;;;;;;0.00;0.00;;;;;;;;;;5120739;28;20027;-87
2023/09/07 06:36:17;;;;;;;0.10;0.00;;;;;;;;;;5122729;28;20491;-88
2023/09/07 06:38:43;;;;;;;0.00;0.00;;;;;;;;;;5123546;28;20028;-88
2023/09/07 06:41:09;;;;;;;0.00;0.00;;;;;;;;;;5122913;28;20034;-88
2023/09/07 06:43:34;;;;;;;0.00;0.00;;;;;;;;;;5089079;28;20039;-88
2023/09/07 06:46:07;;;;;;;0.00;0.00;;;;;;;;;;5106421;28;20052;-88
2023/09/07 06:48:33;;;;;;;0.00;0.00;;;;;;;;;;5087721;28;20027;-88
2023/09/07 06:51:05;;;;;;;0.00;0.00;;;;;;;;;;5119455;28;20031;-87
2023/09/07 06:53:31;;;;;;;0.00;0.00;;;;;;;;;;5102873;28;20051;-86
2023/09/07 06:56:03;;;;;;;0.00;0.00;;;;;;;;;;5121533;27;20061;-87
2023/09/07 06:58:28;;;;;;;0.00;0.00;;;;;;;;;;5121075;28;20088;-89
2023/09/07 07:01:00;;;;;;;0.00;0.00;;;;;;;;;;5104018;28;20028;-87
2023/09/07 07:03:29;;;;;;;0.00;0.00;;;;;;;;;;5104861;28;20047;-88
2023/09/07 07:05:55;;;;;;;0.00;0.00;;;;;;;;;;5103497;28;20050;-88
2023/09/07 07:08:21;;;;;;;0.00;0.00;;;;;;;;;;5119584;28;20023;-88
2023/09/07 07:10:46;;;;;;;0.00;0.00;;;;;;;;;;5086119;28;20115;-89
2023/09/07 07:13:12;;;;;;;0.00;0.00;;;;;;;;;;5102861;28;20050;-86
2023/09/07 07:15:40;;;;;;;0.00;0.00;;;;;;;;;;5101705;28;20038;-85
2023/09/07 07:18:09;;;;;;;0.00;0.00;;;;;;;;;;5101440;28;20034;-82
2023/09/07 07:20:35;;;;;;;0.00;0.00;;;;;;;;;;5117701;28;20057;-82
2023/09/07 07:23:01;;;;;;;0.00;0.00;;;;;;;;;;5122048;28;20119;-85
2023/09/07 07:25:28;;;;;;;0.00;0.00;;;;;;;;;;5120216;28;20349;-85
2023/09/07 07:27:53;;;;;;;0.00;0.00;;;;;;;;;;5103661;28;20152;-87
2023/09/07 07:30:21;;;;;;;0.00;0.00;;;;;;;;;;5121831;28;20051;-89
2023/09/07 07:32:46;;;;;;;0.00;0.00;;;;;;;;;;5102345;28;20116;-82
2023/09/07 07:35:12;;;;;;;0.00;0.00;;;;;;;;;;5127765;28;20016;-83
2023/09/07 07:37:38;;;;;;;0.00;0.00;;;;;;;;;;5124625;28;20429;-82
2023/09/07 07:40:04;;;;;;;0.00;0.00;;;;;;;;;;5121473;28;20059;-81
2023/09/07 07:42:30;;;;;;;0.00;0.00;;;;;;;;;;5120459;28;20038;-81
2023/09/07 07:44:56;;;;;;;0.00;0.00;;;;;;;;;;5121540;28;20055;-82
2023/09/07 07:47:21;;;;;;;0.00;0.00;;;;;;;;;;5124542;28;20429;-81
2023/09/07 07:49:47;;;;;;;0.00;0.00;;;;;;;;;;5105798;28;20035;-81
2023/09/07 07:52:12;;;;;;;0.00;0.00;;;;;;;;;;5122297;28;20027;-81
2023/09/07 07:54:38;;;;;;;0.00;0.00;;;;;;;;;;5121886;28;20043;-82
2023/09/07 07:57:03;;;;;;;0.00;0.00;;;;;;;;;;5122678;28;20104;-82
2023/09/07 07:59:29;;;;;;;0.08;0.00;;;;;;;;;;5124707;28;20027;-83
2023/09/07 08:01:54;;;;;;;0.00;0.00;;;;;;;;;;5124593;28;20152;-83
2023/09/07 08:04:20;;;;;;;0.00;0.00;;;;;;;;;;5123643;28;20087;-83
2023/09/07 08:06:46;;;;;;;0.00;0.00;;;;;;;;;;5106443;28;20088;-82
2023/09/07 08:09:13;;;;;;;0.00;0.00;;;;;;;;;;5104791;28;20036;-83
2023/09/07 08:11:40;;;;;;;0.00;0.00;;;;;;;;;;5089304;28;20027;-83
2023/09/07 08:14:05;;;;;;;0.00;0.00;;;;;;;;;;5124198;28;20031;-83
2023/09/07 08:16:31;;;;;;;0.00;0.00;;;;;;;;;;5089048;28;20447;-83
2023/09/07 08:18:56;;;;;;;0.00;0.00;;;;;;;;;;5105900;28;20081;-83
2023/09/07 08:21:22;;;;;;;0.00;0.00;;;;;;;;;;5123371;28;20031;-83
2023/09/07 08:23:47;;;;;;;0.00;0.00;;;;;;;;;;5123390;28;20035;-84
2023/09/07 08:26:14;;;;;;;0.00;0.00;;;;;;;;;;5107157;28;20024;-83
2023/09/07 08:28:40;;;;;;;0.03;0.00;;;;;;;;;;5107123;28;20044;-83
2023/09/07 08:31:05;;;;;;;0.00;0.00;;;;;;;;;;5105312;28;20031;-83
2023/09/07 08:33:35;;;;;;;0.00;0.00;;;;;;;;;;5105962;28;20035;-82
2023/09/07 08:36:01;;;;;;;0.00;0.00;;;;;;;;;;5105474;28;20028;-81
2023/09/07 08:38:27;;;;;;;0.00;0.00;;;;;;;;;;5122598;28;20024;-81
2023/09/07 08:40:54;;;;;;;0.00;0.00;;;;;;;;;;5105977;28;20073;-81
2023/09/07 08:43:20;;;;;;;0.00;0.00;;;;;;;;;;5105404;28;20362;-82
2023/09/07 08:45:59;;;;;;;0.00;0.00;;;;;;;;;;5105629;28;20024;-82
2023/09/07 08:48:26;;;;;;;0.00;0.00;;;;;;;;;;5107128;28;20030;-82
2023/09/07 08:50:52;;;;;;;0.00;0.00;;;;;;;;;;5105156;28;20028;-83
2023/09/07 08:53:19;;;;;;;0.00;0.00;;;;;;;;;;5104318;28;20051;-83
2023/09/07 08:55:44;;;;;;;0.00;0.00;;;;;;;;;;5087152;28;20039;-84
2023/09/07 08:58:10;;;;;;;0.00;0.00;;;;;;;;;;5120866;28;20031;-84
2023/09/07 09:00:36;;;;;;;0.00;0.00;;;;;;;;;;5124096;28;20058;-83
2023/09/07 09:03:03;;;;;;;0.00;0.00;;;;;;;;;;5121735;28;20020;-83
2023/09/07 09:05:28;;;;;;;0.00;0.00;;;;;;;;;;5121889;28;20019;-83
2023/09/07 09:08:02;;;;;;;0.00;0.00;;;;;;;;;;5104767;28;20041;-83
2023/09/07 09:10:28;;;;;;;0.00;0.00;;;;;;;;;;5156471;27;20027;-84
2023/09/07 09:12:53;;;;;;;0.00;0.00;;;;;;;;;;5104405;28;20020;-83
2023/09/07 09:15:19;;;;;;;0.00;0.00;;;;;;;;;;5120385;28;20035;-81
2023/09/07 09:17:45;;;;;;;0.00;0.00;;;;;;;;;;5119941;28;20028;-82
2023/09/07 09:20:22;;;;;;;0.00;0.00;;;;;;;;;;5085575;28;20031;-82
2023/09/07 09:22:50;;;;;;;0.00;0.00;;;;;;;;;;5101248;28;20429;-82
2023/09/07 09:25:16;;;;;;;0.00;0.00;;;;;;;;;;5119324;28;20096;-80
2023/09/07 09:27:42;;;;;;;0.00;0.00;;;;;;;;;;5120201;28;20396;-81
2023/09/07 09:30:08;;;;;;;0.00;0.00;;;;;;;;;;5102159;28;20108;-81
2023/09/07 09:32:34;;;;;;;0.00;0.00;;;;;;;;;;5119900;28;20492;-80
2023/09/07 09:35:00;;;;;;;0.00;0.00;;;;;;;;;;5100746;28;20077;-81
2023/09/07 09:37:26;;;;;;;0.00;0.00;;;;;;;;;;5102737;28;20104;-81
2023/09/07 09:39:51;;;;;;;0.00;0.00;;;;;;;;;;5103899;28;20059;-83
2023/09/07 09:42:17;;;;;;;0.00;0.00;;;;;;;;;;5123220;28;20034;-82
2023/09/07 09:44:42;;;;;;;0.00;0.00;;;;;;;;;;5104623;28;20074;-85
2023/09/07 09:47:08;;;;;;;0.00;0.00;;;;;;;;;;5120352;28;20082;-82
2023/09/07 09:49:34;;;;;;;0.00;0.00;;;;;;;;;;5123102;28;20024;-83
2023/09/07 09:51:59;;;;;;;0.00;0.00;;;;;;;;;;5124409;28;20027;-82
2023/09/07 09:54:26;;;;;;;0.00;0.00;;;;;;;;;;5104400;28;20042;-83
2023/09/07 09:56:51;;;;;;;0.00;0.00;;;;;;;;;;5124234;28;20024;-83
2023/09/07 09:59:20;;;;;;;0.00;0.00;;;;;;;;;;5119409;28;20026;-83
2023/09/07 10:01:50;;;;;;;0.00;0.00;;;;;;;;;;5118239;28;20415;-83
2023/09/07 10:04:17;;;;;;;0.00;0.00;;;;;;;;;;5120713;28;20062;-84
2023/09/07 10:06:55;;;;;;;0.00;0.00;;;;;;;;;;5103424;28;20488;-84
2023/09/07 10:09:21;;;;;;;0.00;0.00;;;;;;;;;;5119056;28;20027;-82
2023/09/07 10:11:52;;;;;;;0.00;0.00;;;;;;;;;;5104413;28;20023;-81
2023/09/07 10:14:20;;;;;;;0.00;0.00;;;;;;;;;;5086259;28;20032;-80
2023/09/07 10:17:16;;;;;;;0.00;0.00;;;;;;;;;;5103540;28;20407;-80
2023/09/07 10:20:05;;;;;;;0.00;0.00;;;;;;;;;;5121124;28;20068;-81
2023/09/07 10:22:30;;;;;;;0.00;0.00;;;;;;;;;;5085782;28;20043;-82
2023/09/07 10:25:12;;;;;;;0.00;0.00;;;;;;;;;;5086431;28;20107;-83
2023/09/07 10:27:38;;;;;;;0.00;0.00;;;;;;;;;;5122842;28;20031;-83
2023/09/07 10:30:23;;;;;;;0.00;0.00;;;;;;;;;;5091611;27;20401;-77
2023/09/07 10:32:49;;;;;;;0.00;0.00;;;;;;;;;;5074166;28;20028;-75
2023/09/07 10:35:21;;;;;;;0.00;0.00;;;;;;;;;;5091497;28;20094;-77
2023/09/07 10:37:47;;;;;;;0.00;0.00;;;;;;;;;;5091828;28;20043;-77
2023/09/07 10:40:15;;;;;;;0.00;0.00;;;;;;;;;;5090272;28;20024;-78
2023/09/07 10:42:41;;;;;;;0.00;0.00;;;;;;;;;;5074100;28;20395;-77
2023/09/07 10:45:12;;;;;;;0.00;0.00;;;;;;;;;;5090620;28;20052;-78
2023/09/07 10:47:40;;;;;;;0.08;0.00;;;;;;;;;;5073807;28;20158;-81
2023/09/07 10:50:06;;;;;;;0.00;0.00;;;;;;;;;;5090674;28;20072;-77
2023/09/07 10:52:33;;;;;;;0.00;0.00;;;;;;;;;;5090397;28;20066;-80
2023/09/07 10:54:59;;;;;;;0.00;0.00;;;;;;;;;;5090149;28;20075;-77
2023/09/07 10:57:24;;;;;;;0.00;0.00;;;;;;;;;;5090959;28;20024;-75
2023/09/07 10:59:49;;;;;;;0.00;0.00;;;;;;;;;;5091420;28;20120;-74
2023/09/07 11:02:15;;;;;;;0.00;0.00;;;;;;;;;;5089790;28;20025;-74
2023/09/07 11:04:40;;;;;;;0.00;0.00;;;;;;;;;;5090833;28;20428;-76
2023/09/07 11:07:06;;;;;;;0.00;0.00;;;;;;;;;;5090567;28;20425;-76
2023/09/07 11:09:31;;;;;;;0.00;0.00;;;;;;;;;;5092303;28;20469;-76
2023/09/07 11:11:57;;;;;;;0.00;0.00;;;;;;;;;;5091144;28;20024;-76
2023/09/07 11:14:22;;;;;;;0.00;0.00;;;;;;;;;;5089907;28;20056;-77
2023/09/07 11:16:48;;;;;;;0.00;0.00;;;;;;;;;;5090756;28;20031;-77
2023/09/07 11:19:15;;;;;;;0.00;0.00;;;;;;;;;;5091051;28;20056;-76
2023/09/07 11:21:40;;;;;;;0.00;0.00;;;;;;;;;;5090911;28;20032;-77
2023/09/07 11:24:06;;;;;;;0.00;0.00;;;;;;;;;;5089297;28;20377;-77
2023/09/07 11:26:44;;;;;;;0.00;0.00;;;;;;;;;;5090395;28;20024;-77
2023/09/07 11:29:13;;;;;;;0.00;0.00;;;;;;;;;;5088870;28;20450;-77
2023/09/07 11:31:39;;;;;;;0.00;0.00;;;;;;;;;;5091710;28;20103;-77
2023/09/07 11:34:09;;;;;;;0.00;0.00;;;;;;;;;;5091144;28;20056;-77
2023/09/07 11:36:34;;;;;;;0.03;0.00;;;;;;;;;;5072185;28;20433;-74
2023/09/07 11:39:00;;;;;;;0.00;0.00;;;;;;;;;;5089206;28;20063;-75
2023/09/07 11:41:25;;;;;;;0.00;0.00;;;;;;;;;;5077706;28;20046;-77
2023/09/07 11:43:51;;;;;;;0.00;0.00;;;;;;;;;;5077251;28;20397;-77
2023/09/07 11:46:16;;;;;;;0.00;0.00;;;;;;;;;;5076850;28;20056;-78
2023/09/07 11:48:42;;;;;;;0.00;0.00;;;;;;;;;;5076699;28;20468;-77
2023/09/07 11:51:08;;;;;;;0.00;0.00;;;;;;;;;;5076693;28;20538;-77
2023/09/07 11:53:34;;;;;;;0.00;0.00;;;;;;;;;;5077227;28;20366;-76
2023/09/07 11:55:59;;;;;;;0.00;0.00;;;;;;;;;;5078354;28;20032;-81
2023/09/07 11:58:26;;;;;;;0.00;0.00;;;;;;;;;;5075387;28;20031;-77
2023/09/07 12:00:52;;;;;;;0.00;0.00;;;;;;;;;;5076365;28;20032;-78
2023/09/07 12:03:17;;;;;;;0.00;0.00;;;;;;;;;;5076574;28;20044;-76
2023/09/07 12:05:44;;;;;;;0.00;0.00;;;;;;;;;;5076540;28;20043;-77
2023/09/07 12:08:09;;;;;;;0.00;0.00;;;;;;;;;;5076151;28;20040;-76
2023/09/07 12:10:35;;;;;;;0.00;0.00;;;;;;;;;;5058563;28;20032;-79
2023/09/07 12:13:00;;;;;;;0.00;0.00;;;;;;;;;;5076755;28;20446;-79
2023/09/07 12:15:26;;;;;;;0.00;0.00;;;;;;;;;;5075334;28;20040;-74
2023/09/07 12:17:54;;;;;;;0.00;0.00;;;;;;;;;;5058811;28;20032;-74
2023/09/07 12:20:21;;;;;;;0.17;0.00;;;;;;;;;;5076366;28;20043;-75
2023/09/07 12:22:46;;;;;;;0.00;0.00;;;;;;;;;;5074725;28;20036;-74
2023/09/07 12:25:12;;;;;;;0.08;0.00;;;;;;;;;;5076185;28;20047;-75
2023/09/07 12:27:37;;;;;;;0.00;0.00;;;;;;;;;;5074934;28;20454;-74
2023/09/07 12:30:08;;;;;;;0.00;0.00;;;;;;;;;;5075806;28;20062;-77
2023/09/07 12:32:33;;;;;;;0.00;0.00;;;;;;;;;;5076172;28;20104;-74
2023/09/07 12:34:59;;;;;;;0.00;0.00;;;;;;;;;;5076230;28;20437;-75
2023/09/07 12:37:25;;;;;;;0.00;0.00;;;;;;;;;;5074918;28;20127;-77
2023/09/07 12:39:51;;;;;;;0.00;0.00;;;;;;;;;;5075635;28;20158;-76
2023/09/07 12:42:17;;;;;;;0.00;0.00;;;;;;;;;;5075698;28;20115;-77
2023/09/07 12:44:43;;;;;;;0.00;0.00;;;;;;;;;;5074857;28;20035;-77
2023/09/07 12:47:08;;;;;;;0.00;0.00;;;;;;;;;;5074637;28;20021;-77
2023/09/07 12:49:34;;;;;;;0.00;0.00;;;;;;;;;;5075287;28;20031;-78
2023/09/07 12:52:00;;;;;;;0.00;0.00;;;;;;;;;;5074839;28;20165;-77
2023/09/07 12:54:25;;;;;;;0.00;0.00;;;;;;;;;;5075552;28;20469;-77
2023/09/07 12:56:51;;;;;;;0.15;0.00;;;;;;;;;;5074444;28;20024;-76
2023/09/07 12:59:16;;;;;;;0.00;0.00;;;;;;;;;;5074297;28;20064;-77
2023/09/07 13:02:02;;;;;;;0.00;0.00;;;;;;;;;;5076323;28;20064;-79
2023/09/07 13:04:27;;;;;;;0.00;0.00;;;;;;;;;;5080703;28;20033;-77
2023/09/07 13:06:53;;;;;;;0.00;0.00;;;;;;;;;;5075844;28;20029;-76
2023/09/07 13:09:18;;;;;;;0.00;0.00;;;;;;;;;;5077031;28;20033;-77
2023/09/07 13:11:44;;;;;;;0.00;0.00;;;;;;;;;;5075446;28;20131;-75
2023/09/07 13:14:09;;;;;;;0.00;0.00;;;;;;;;;;5073947;28;20064;-76
2023/09/07 13:16:44;;;;;;;0.00;0.00;;;;;;;;;;5075299;28;20033;-76
2023/09/07 13:19:10;;;;;;;0.00;0.00;;;;;;;;;;5070116;28;20044;-81
2023/09/07 13:21:35;;;;;;;0.00;0.00;;;;;;;;;;5074670;28;20441;-82
2023/09/07 13:24:01;;;;;;;0.00;0.00;;;;;;;;;;5075288;28;20025;-80
2023/09/07 13:26:26;;;;;;;0.00;0.00;;;;;;;;;;5074640;28;20029;-81
2023/09/07 13:28:52;;;;;;;0.00;0.00;;;;;;;;;;5074970;28;20394;-82
2023/09/07 13:31:17;;;;;;;0.00;0.00;;;;;;;;;;5073590;28;20070;-82
2023/09/07 13:33:42;;;;;;;0.00;0.00;;;;;;;;;;5075161;28;20355;-81
2023/09/07 13:36:09;;;;;;;0.00;0.00;;;;;;;;;;5074096;28;20382;-82
2023/09/07 13:38:35;;;;;;;0.00;0.00;;;;;;;;;;5075801;28;20032;-81
2023/09/07 13:41:00;;;;;;;0.00;0.00;;;;;;;;;;5080816;28;20021;-82
2023/09/07 13:43:26;;;;;;;0.00;0.00;;;;;;;;;;5084872;28;20090;-80
2023/09/07 13:45:51;;;;;;;0.00;0.00;;;;;;;;;;5078471;28;20062;-81
2023/09/07 13:48:17;;;;;;;0.00;0.00;;;;;;;;;;5079962;28;20437;-83
2023/09/07 13:50:43;;;;;;;0.00;0.00;;;;;;;;;;5078801;28;20072;-82
2023/09/07 13:53:08;;;;;;;0.00;0.00;;;;;;;;;;5073665;28;20119;-83
2023/09/07 13:55:35;;;;;;;0.00;0.00;;;;;;;;;;5064321;28;20070;-84
2023/09/07 13:58:00;;;;;;;0.00;0.00;;;;;;;;;;5074789;28;20053;-83
2023/09/07 14:00:26;;;;;;;0.00;0.00;;;;;;;;;;5074231;28;20119;-82
2023/09/07 14:02:52;;;;;;;0.00;0.00;;;;;;;;;;5073825;28;20096;-82
2023/09/07 14:05:17;;;;;;;0.00;0.00;;;;;;;;;;5074454;28;20130;-83
2023/09/07 14:07:43;;;;;;;0.00;0.00;;;;;;;;;;5074360;28;20426;-83
2023/09/07 14:10:09;;;;;;;0.00;0.00;;;;;;;;;;5074482;28;20036;-83
2023/09/07 14:12:34;;;;;;;0.00;0.00;;;;;;;;;;5074402;28;20115;-83
2023/09/07 14:14:59;;;;;;;0.00;0.00;;;;;;;;;;5073417;28;20028;-83
2023/09/07 14:17:25;;;;;;;0.00;0.00;;;;;;;;;;5074467;28;20362;-82
2023/09/07 14:19:50;;;;;;;0.00;0.00;;;;;;;;;;5074421;28;20450;-83
2023/09/07 14:22:16;;;;;;;0.00;0.00;;;;;;;;;;5074725;28;20033;-83
2023/09/07 14:24:41;;;;;;;0.00;0.00;;;;;;;;;;5072701;28;20078;-83
2023/09/07 14:27:08;;;;;;;0.00;0.00;;;;;;;;;;5073983;28;20028;-83
2023/09/07 14:29:34;;;;;;;0.00;0.00;;;;;;;;;;5074139;28;20052;-83
2023/09/07 14:32:00;;;;;;;0.00;0.00;;;;;;;;;;5074099;28;20060;-83
2023/09/07 14:34:26;;;;;;;0.00;0.00;;;;;;;;;;5082611;28;20027;-83
2023/09/07 14:36:51;;;;;;;0.00;0.00;;;;;;;;;;5077920;28;20362;-83
2023/09/07 14:39:23;;;;;;;0.00;0.00;;;;;;;;;;5074316;28;20115;-83